createdAt,value
2016-11-12T00:00:21.557Z,25.5
2016-11-12T00:01:21.809Z,25.45
2016-11-12T00:02:21.522Z,25.47
2016-11-12T00:03:21.587Z,25.52
2016-11-12T00:04:21.930Z,25.47
2016-11-12T00:05:21.612Z,25.42
2016-11-12T00:06:23.557Z,25.5
2016-11-12T00:07:21.315Z,25.54
2016-11-12T00:08:21.783Z,25.46
2016-11-12T00:09:23.299Z,25.45
2016-11-12T00:10:21.683Z,25.52
2016-11-12T00:11:21.516Z,25.46
2016-11-12T00:12:22.052Z,25.58
2016-11-12T00:13:21.562Z,25.45
2016-11-12T00:14:23.013Z,25.54
2016-11-12T00:15:21.958Z,25.65
2016-11-12T00:16:21.171Z,25.58
2016-11-12T00:17:21.988Z,25.6
2016-11-12T00:18:21.844Z,25.54
2016-11-12T00:19:21.980Z,25.6
2016-11-12T00:20:21.929Z,25.52
2016-11-12T00:21:21.671Z,25.57
2016-11-12T00:22:21.586Z,25.47
2016-11-12T00:23:21.736Z,25.55
2016-11-12T00:24:21.997Z,25.54
2016-11-12T00:25:21.618Z,25.52
2016-11-12T00:26:22.071Z,25.57
2016-11-12T00:27:21.673Z,25.57
2016-11-12T00:28:22.155Z,25.42
2016-11-12T00:29:21.303Z,25.5
2016-11-12T00:30:22.023Z,25.51
2016-11-12T00:31:22.018Z,25.54
2016-11-12T00:32:22.040Z,25.5
2016-11-12T00:33:23.087Z,25.52
2016-11-12T00:34:22.071Z,25.47
2016-11-12T00:35:21.735Z,25.42
2016-11-12T00:36:22.190Z,25.45
2016-11-12T00:37:21.727Z,25.47
2016-11-12T00:38:21.683Z,25.5
2016-11-12T00:39:22.748Z,25.46
2016-11-12T00:40:21.804Z,25.47
2016-11-12T00:41:22.301Z,25.42
2016-11-12T00:42:21.981Z,25.45
2016-11-12T00:43:21.851Z,25.47
2016-11-12T00:44:22.419Z,25.45
2016-11-12T00:45:21.694Z,25.47
2016-11-12T00:46:21.796Z,25.43
2016-11-12T00:47:21.912Z,25.45
2016-11-12T00:48:21.904Z,25.43
2016-11-12T00:49:22.171Z,25.4
2016-11-12T00:50:21.775Z,25.46
2016-11-12T00:51:21.955Z,25.45
2016-11-12T00:52:21.591Z,25.45
2016-11-12T00:53:21.879Z,25.43
2016-11-12T00:54:22.194Z,25.45
2016-11-12T00:55:21.828Z,25.5
2016-11-12T00:56:22.216Z,25.42
2016-11-12T00:57:21.971Z,25.5
2016-11-12T00:58:22.321Z,25.45
2016-11-12T00:59:22.191Z,25.52
2016-11-12T01:00:21.576Z,25.5
2016-11-12T01:01:22.224Z,25.45
2016-11-12T01:02:22.304Z,25.46
2016-11-12T01:03:21.969Z,25.45
2016-11-12T01:04:22.324Z,25.43
2016-11-12T01:05:21.959Z,25.55
2016-11-12T01:06:22.351Z,25.45
2016-11-12T01:07:22.046Z,25.47
2016-11-12T01:08:22.334Z,25.47
2016-11-12T01:09:22.279Z,25.47
2016-11-12T01:10:22.298Z,25.51
2016-11-12T01:11:22.138Z,25.51
2016-11-12T01:12:22.082Z,25.46
2016-11-12T01:13:22.044Z,25.58
2016-11-12T01:14:21.948Z,25.47
2016-11-12T01:15:21.794Z,25.51
2016-11-12T01:16:22.451Z,25.5
2016-11-12T01:17:21.993Z,25.51
2016-11-12T01:18:21.716Z,25.5
2016-11-12T01:19:21.946Z,25.47
2016-11-12T01:20:21.946Z,25.54
2016-11-12T01:21:22.168Z,25.5
2016-11-12T01:22:22.441Z,25.43
2016-11-12T01:23:22.350Z,25.43
2016-11-12T01:24:22.391Z,25.45
2016-11-12T01:25:22.076Z,25.43
2016-11-12T01:26:21.908Z,25.51
2016-11-12T01:27:22.543Z,25.4
2016-11-12T01:28:21.668Z,25.45
2016-11-12T01:29:22.473Z,25.39
2016-11-12T01:30:22.515Z,25.38
2016-11-12T01:31:22.223Z,25.42
2016-11-12T01:32:22.298Z,25.47
2016-11-12T01:33:22.144Z,25.45
2016-11-12T01:34:22.154Z,25.46
2016-11-12T01:35:21.734Z,25.43
2016-11-12T01:36:22.079Z,25.39
2016-11-12T01:37:22.086Z,25.42
2016-11-12T01:38:22.475Z,25.42
2016-11-12T01:39:22.414Z,25.42
2016-11-12T01:40:22.151Z,25.42
2016-11-12T01:41:22.608Z,25.4
2016-11-12T01:42:22.116Z,25.38
2016-11-12T01:43:22.104Z,25.39
2016-11-12T01:44:22.182Z,25.39
2016-11-12T01:45:22.285Z,25.39
2016-11-12T01:46:22.403Z,25.38
2016-11-12T01:47:22.065Z,25.43
2016-11-12T01:48:22.491Z,25.36
2016-11-12T01:49:22.607Z,25.43
2016-11-12T01:50:22.496Z,25.51
2016-11-12T01:51:22.268Z,25.46
2016-11-12T01:52:22.342Z,25.43
2016-11-12T01:53:22.195Z,25.39
2016-11-12T01:54:22.354Z,25.43
2016-11-12T01:55:22.647Z,25.4
2016-11-12T01:56:22.340Z,25.38
2016-11-12T01:57:22.170Z,25.46
2016-11-12T01:58:22.176Z,25.51
2016-11-12T01:59:22.441Z,25.45
2016-11-12T02:00:22.033Z,25.45
2016-11-12T02:01:21.963Z,25.42
2016-11-12T02:02:22.113Z,25.46
2016-11-12T02:03:21.988Z,25.46
2016-11-12T02:04:22.516Z,25.4
2016-11-12T02:05:22.262Z,25.45
2016-11-12T02:06:22.500Z,25.4
2016-11-12T02:07:23.483Z,25.47
2016-11-12T02:08:22.572Z,25.52
2016-11-12T02:09:22.740Z,25.51
2016-11-12T02:10:22.746Z,25.45
2016-11-12T02:11:22.675Z,25.45
2016-11-12T02:12:22.446Z,25.47
2016-11-12T02:13:22.575Z,25.51
2016-11-12T02:14:22.576Z,25.46
2016-11-12T02:15:22.642Z,25.5
2016-11-12T02:16:22.653Z,25.5
2016-11-12T02:17:22.359Z,25.51
2016-11-12T02:18:22.779Z,25.5
2016-11-12T02:19:22.491Z,25.39
2016-11-12T02:20:22.396Z,25.5
2016-11-12T02:21:22.892Z,25.46
2016-11-12T02:22:22.653Z,25.47
2016-11-12T02:23:22.604Z,25.45
2016-11-12T02:24:22.859Z,25.47
2016-11-12T02:25:22.408Z,25.45
2016-11-12T02:26:22.406Z,25.52
2016-11-12T02:27:22.129Z,25.54
2016-11-12T02:28:22.879Z,25.43
2016-11-12T02:29:22.758Z,25.46
2016-11-12T02:30:22.183Z,25.47
2016-11-12T02:31:22.403Z,25.54
2016-11-12T02:32:22.452Z,25.42
2016-11-12T02:33:22.356Z,25.52
2016-11-12T02:34:22.880Z,25.47
2016-11-12T02:35:22.180Z,25.5
2016-11-12T02:36:22.447Z,25.43
2016-11-12T02:37:22.761Z,25.52
2016-11-12T02:38:22.216Z,25.47
2016-11-12T02:39:22.522Z,25.57
2016-11-12T02:40:22.663Z,25.47
2016-11-12T02:41:23.018Z,25.52
2016-11-12T02:42:22.468Z,25.52
2016-11-12T02:43:22.994Z,25.5
2016-11-12T02:44:22.433Z,25.51
2016-11-12T02:45:22.680Z,25.52
2016-11-12T02:46:22.762Z,25.51
2016-11-12T02:47:22.452Z,25.51
2016-11-12T02:48:22.463Z,25.5
2016-11-12T02:49:22.784Z,25.57
2016-11-12T02:50:22.666Z,25.58
2016-11-12T02:51:22.613Z,25.51
2016-11-12T02:52:22.276Z,25.58
2016-11-12T02:53:22.641Z,25.58
2016-11-12T02:54:22.867Z,25.6
2016-11-12T02:55:22.611Z,25.67
2016-11-12T02:56:22.863Z,25.47
2016-11-12T02:57:22.738Z,25.54
2016-11-12T02:58:22.531Z,25.5
2016-11-12T02:59:22.899Z,25.54
2016-11-12T03:00:23.106Z,25.52
2016-11-12T03:01:22.970Z,25.5
2016-11-12T03:02:22.810Z,25.45
2016-11-12T03:03:22.643Z,25.52
2016-11-12T03:04:22.312Z,25.45
2016-11-12T03:05:22.682Z,25.51
2016-11-12T03:06:23.030Z,25.65
2016-11-12T03:07:23.133Z,25.61
2016-11-12T03:08:23.110Z,25.5
2016-11-12T03:09:22.819Z,25.51
2016-11-12T03:10:23.176Z,25.6
2016-11-12T03:11:22.767Z,25.51
2016-11-12T03:12:22.676Z,25.58
2016-11-12T03:13:22.712Z,25.52
2016-11-12T03:14:23.005Z,25.54
2016-11-12T03:15:23.209Z,25.5
2016-11-12T03:16:22.392Z,25.51
2016-11-12T03:17:22.712Z,25.5
2016-11-12T03:18:22.671Z,25.54
2016-11-12T03:19:22.897Z,25.55
2016-11-12T03:20:23.185Z,25.57
2016-11-12T03:21:22.468Z,25.6
2016-11-12T03:22:23.268Z,25.65
2016-11-12T03:23:23.052Z,25.57
2016-11-12T03:24:23.118Z,25.64
2016-11-12T03:25:23.913Z,25.58
2016-11-12T03:26:22.508Z,25.6
2016-11-12T03:27:22.606Z,25.55
2016-11-12T03:28:23.098Z,25.6
2016-11-12T03:29:22.766Z,25.58
2016-11-12T03:30:23.067Z,25.64
2016-11-12T03:31:23.080Z,25.58
2016-11-12T03:32:23.597Z,25.62
2016-11-12T03:33:22.868Z,25.61
2016-11-12T03:34:23.170Z,25.6
2016-11-12T03:35:23.008Z,25.6
2016-11-12T03:36:23.266Z,25.65
2016-11-12T03:37:23.224Z,25.61
2016-11-12T03:38:22.639Z,25.7
2016-11-12T03:39:22.863Z,25.61
2016-11-12T03:40:22.827Z,25.58
2016-11-12T03:41:22.873Z,25.58
2016-11-12T03:42:22.980Z,25.58
2016-11-12T03:43:22.964Z,25.61
2016-11-12T03:44:22.968Z,25.6
2016-11-12T03:45:23.317Z,25.57
2016-11-12T03:46:22.686Z,25.47
2016-11-12T03:47:23.299Z,25.51
2016-11-12T03:48:23.049Z,25.57
2016-11-12T03:49:23.187Z,25.54
2016-11-12T03:50:22.886Z,25.52
2016-11-12T03:51:23.126Z,25.51
2016-11-12T03:52:22.641Z,25.52
2016-11-12T03:53:23.319Z,25.46
2016-11-12T03:54:23.034Z,25.4
2016-11-12T03:55:23.363Z,25.5
2016-11-12T03:56:23.428Z,25.52
2016-11-12T03:57:23.341Z,25.51
2016-11-12T03:58:22.619Z,25.47
2016-11-12T03:59:23.252Z,25.51
2016-11-12T04:00:23.050Z,25.64
2016-11-12T04:01:23.532Z,25.54
2016-11-12T04:02:22.962Z,25.52
2016-11-12T04:03:23.026Z,25.57
2016-11-12T04:04:23.596Z,25.54
2016-11-12T04:05:22.978Z,25.58
2016-11-12T04:06:23.055Z,25.55
2016-11-12T04:07:23.094Z,25.58
2016-11-12T04:08:23.523Z,25.6
2016-11-12T04:09:23.060Z,25.58
2016-11-12T04:10:23.052Z,25.54
2016-11-12T04:11:23.039Z,25.62
2016-11-12T04:12:22.905Z,25.6
2016-11-12T04:13:23.399Z,25.62
2016-11-12T04:14:23.352Z,25.58
2016-11-12T04:15:23.359Z,25.62
2016-11-12T04:16:23.188Z,25.61
2016-11-12T04:17:22.798Z,25.58
2016-11-12T04:18:22.756Z,25.58
2016-11-12T04:19:23.575Z,25.57
2016-11-12T04:20:23.077Z,25.6
2016-11-12T04:21:23.449Z,25.64
2016-11-12T04:22:23.191Z,25.6
2016-11-12T04:23:23.200Z,25.61
2016-11-12T04:24:23.114Z,25.62
2016-11-12T04:25:23.206Z,25.61
2016-11-12T04:26:23.292Z,25.57
2016-11-12T04:27:23.171Z,25.55
2016-11-12T04:28:23.221Z,25.55
2016-11-12T04:29:23.334Z,25.62
2016-11-12T04:30:23.254Z,25.62
2016-11-12T04:31:23.199Z,25.57
2016-11-12T04:32:23.254Z,25.58
2016-11-12T04:33:22.895Z,25.57
2016-11-12T04:34:23.771Z,25.5
2016-11-12T04:35:23.522Z,25.54
2016-11-12T04:36:23.565Z,25.51
2016-11-12T04:37:23.219Z,25.52
2016-11-12T04:38:23.266Z,25.47
2016-11-12T04:39:23.207Z,25.52
2016-11-12T04:40:23.207Z,25.54
2016-11-12T04:41:23.294Z,25.52
2016-11-12T04:42:22.958Z,25.55
2016-11-12T04:43:23.228Z,25.51
2016-11-12T04:44:23.715Z,25.45
2016-11-12T04:45:23.562Z,25.57
2016-11-12T04:46:23.704Z,25.51
2016-11-12T04:47:23.138Z,25.52
2016-11-12T04:48:23.622Z,25.46
2016-11-12T04:49:23.410Z,25.54
2016-11-12T04:50:23.281Z,25.51
2016-11-12T04:51:23.385Z,25.46
2016-11-12T04:52:23.599Z,25.39
2016-11-12T04:53:23.811Z,25.46
2016-11-12T04:54:23.792Z,25.46
2016-11-12T04:55:23.712Z,25.46
2016-11-12T04:56:23.379Z,25.46
2016-11-12T04:57:23.401Z,25.4
2016-11-12T04:58:23.841Z,25.5
2016-11-12T04:59:23.667Z,25.43
2016-11-12T05:00:23.665Z,25.46
2016-11-12T05:01:23.713Z,25.45
2016-11-12T05:02:23.406Z,25.45
2016-11-12T05:03:23.416Z,25.46
2016-11-12T05:04:23.732Z,25.36
2016-11-12T05:05:23.433Z,25.38
2016-11-12T05:06:23.683Z,25.42
2016-11-12T05:07:23.437Z,25.4
2016-11-12T05:08:23.441Z,25.45
2016-11-12T05:09:23.454Z,25.39
2016-11-12T05:10:23.864Z,25.36
2016-11-12T05:11:23.702Z,25.35
2016-11-12T05:12:23.558Z,25.38
2016-11-12T05:13:23.453Z,25.4
2016-11-12T05:14:23.850Z,25.45
2016-11-12T05:15:23.494Z,25.32
2016-11-12T05:16:23.617Z,25.43
2016-11-12T05:17:23.872Z,25.38
2016-11-12T05:18:23.794Z,25.38
2016-11-12T05:19:23.872Z,25.43
2016-11-12T05:20:23.530Z,25.36
2016-11-12T05:21:23.517Z,25.33
2016-11-12T05:22:23.564Z,25.36
2016-11-12T05:23:23.932Z,25.28
2016-11-12T05:24:23.241Z,25.42
2016-11-12T05:25:23.511Z,25.33
2016-11-12T05:26:23.880Z,25.33
2016-11-12T05:27:23.315Z,25.33
2016-11-12T05:28:23.586Z,25.25
2016-11-12T05:29:23.590Z,25.27
2016-11-12T05:30:23.549Z,25.3
2016-11-12T05:31:23.915Z,25.21
2016-11-12T05:32:23.870Z,25.32
2016-11-12T05:33:23.617Z,25.28
2016-11-12T05:34:23.937Z,25.2
2016-11-12T05:35:23.578Z,25.18
2016-11-12T05:36:23.688Z,25.24
2016-11-12T05:37:23.907Z,25.28
2016-11-12T05:38:23.912Z,25.2
2016-11-12T05:39:23.707Z,25.28
2016-11-12T05:40:23.877Z,25.24
2016-11-12T05:41:24.167Z,25.24
2016-11-12T05:42:23.627Z,25.21
2016-11-12T05:43:23.805Z,25.25
2016-11-12T05:44:23.758Z,25.18
2016-11-12T05:45:24.012Z,25.28
2016-11-12T05:46:23.343Z,25.13
2016-11-12T05:47:24.012Z,25.2
2016-11-12T05:48:23.938Z,25.2
2016-11-12T05:49:24.038Z,25.17
2016-11-12T05:50:23.703Z,25.14
2016-11-12T05:51:24.134Z,25.2
2016-11-12T05:52:23.712Z,25.1
2016-11-12T05:53:23.493Z,25.14
2016-11-12T05:54:24.117Z,25.21
2016-11-12T05:55:23.786Z,25.18
2016-11-12T05:56:24.036Z,25.17
2016-11-12T05:57:23.871Z,25.24
2016-11-12T05:58:24.187Z,25.18
2016-11-12T05:59:24.121Z,25.2
2016-11-12T06:00:23.917Z,25.18
2016-11-12T06:01:23.750Z,25.2
2016-11-12T06:02:23.917Z,25.1
2016-11-12T06:03:23.770Z,25.18
2016-11-12T06:04:23.469Z,25.23
2016-11-12T06:05:23.780Z,25.15
2016-11-12T06:06:24.150Z,25.24
2016-11-12T06:07:23.613Z,25.13
2016-11-12T06:08:23.491Z,25.23
2016-11-12T06:09:23.503Z,25.14
2016-11-12T06:10:24.283Z,25.06
2016-11-12T06:11:23.871Z,25.05
2016-11-12T06:12:23.884Z,25.09
2016-11-12T06:13:23.885Z,25.14
2016-11-12T06:14:23.842Z,25.15
2016-11-12T06:15:23.850Z,25.08
2016-11-12T06:16:23.856Z,25.1
2016-11-12T06:17:23.549Z,25.18
2016-11-12T06:18:24.268Z,25.06
2016-11-12T06:19:24.187Z,25.17
2016-11-12T06:20:24.244Z,25.08
2016-11-12T06:21:24.200Z,25.09
2016-11-12T06:22:23.944Z,25.14
2016-11-12T06:23:24.265Z,25.09
2016-11-12T06:24:23.651Z,25.17
2016-11-12T06:25:24.278Z,25.05
2016-11-12T06:26:24.239Z,25.05
2016-11-12T06:27:24.297Z,25.08
2016-11-12T06:28:23.933Z,25.18
2016-11-12T06:29:23.638Z,25.09
2016-11-12T06:34:10.200Z,25.06
2016-11-12T06:35:10.781Z,25.09
2016-11-12T06:36:10.840Z,25.18
2016-11-12T06:37:10.168Z,25.09
2016-11-12T06:38:10.175Z,25.17
2016-11-12T06:39:10.857Z,25.18
2016-11-12T06:40:10.607Z,25.21
2016-11-12T06:41:10.518Z,25.09
2016-11-12T06:42:10.255Z,25.17
2016-11-12T06:43:11.754Z,25.09
2016-11-12T06:44:10.585Z,25.08
2016-11-12T06:45:10.948Z,25.15
2016-11-12T06:46:10.857Z,25.18
2016-11-12T06:47:10.859Z,25.1
2016-11-12T06:48:10.605Z,25.08
2016-11-12T06:49:10.563Z,25.13
2016-11-12T06:50:10.569Z,25.09
2016-11-12T06:51:10.264Z,25.09
2016-11-12T06:52:12.198Z,25.1
2016-11-12T06:53:10.901Z,25.03
2016-11-12T06:54:11.246Z,25.09
2016-11-12T06:55:10.388Z,25.13
2016-11-12T06:56:10.346Z,25.14
2016-11-12T06:57:10.305Z,25.09
2016-11-12T06:58:10.310Z,25.13
2016-11-12T06:59:10.998Z,25.1
2016-11-12T07:00:10.689Z,25.08
2016-11-12T07:01:11.262Z,25.05
2016-11-12T07:02:10.707Z,25.06
2016-11-12T07:03:11.856Z,25.13
2016-11-12T07:04:10.398Z,25.06
2016-11-12T07:05:11.022Z,25.08
2016-11-12T07:06:10.727Z,25.13
2016-11-12T07:07:11.001Z,25.08
2016-11-12T07:08:10.431Z,25.1
2016-11-12T07:09:10.746Z,25.1
2016-11-12T07:10:10.704Z,25.13
2016-11-12T07:11:10.763Z,25.17
2016-11-12T07:12:10.765Z,25.1
2016-11-12T07:13:10.778Z,25.1
2016-11-12T07:14:11.547Z,25.08
2016-11-12T07:15:10.422Z,25.15
2016-11-12T07:16:10.744Z,25.08
2016-11-12T07:17:11.063Z,25.13
2016-11-12T07:18:10.862Z,25.08
2016-11-12T07:19:10.816Z,25.1
2016-11-12T07:20:10.794Z,25.09
2016-11-12T07:21:10.564Z,25.09
2016-11-12T07:22:10.473Z,25.03
2016-11-12T07:23:10.479Z,25.08
2016-11-12T07:24:11.163Z,25.06
2016-11-12T07:25:11.139Z,25.05
2016-11-12T07:26:11.175Z,25.1
2016-11-12T07:27:10.509Z,25.03
2016-11-12T07:28:10.881Z,25.09
2016-11-12T07:29:10.883Z,25.09
2016-11-12T07:30:10.890Z,25.05
2016-11-12T07:31:10.898Z,25.09
2016-11-12T07:32:10.854Z,25.09
2016-11-12T07:33:10.859Z,25.06
2016-11-12T07:34:10.867Z,25.24
2016-11-12T07:35:10.876Z,25.42
2016-11-12T07:36:12.383Z,25.51
2016-11-12T07:37:10.890Z,25.73
2016-11-12T07:38:11.543Z,25.83
2016-11-12T07:39:10.587Z,26.02
2016-11-12T07:40:11.269Z,26.18
2016-11-12T07:41:11.276Z,26.33
2016-11-12T07:42:10.918Z,26.54
2016-11-12T07:43:10.932Z,26.73
2016-11-12T07:44:10.934Z,26.81
2016-11-12T07:45:10.990Z,27.02
2016-11-12T07:46:10.999Z,27
2016-11-12T07:47:11.653Z,27.12
2016-11-12T07:48:11.320Z,27.27
2016-11-12T07:49:11.329Z,27.44
2016-11-12T07:50:10.659Z,27.4
2016-11-12T07:51:11.344Z,27.55
2016-11-12T07:52:10.989Z,27.59
2016-11-12T07:53:10.999Z,27.57
2016-11-12T07:54:11.051Z,27.7
2016-11-12T07:55:11.371Z,27.75
2016-11-12T07:56:11.380Z,27.81
2016-11-12T07:57:11.027Z,27.81
2016-11-12T07:58:11.391Z,27.87
2016-11-12T07:59:10.772Z,27.82
2016-11-12T08:00:10.729Z,27.93
2016-11-12T08:01:11.073Z,28.04
2016-11-12T08:02:10.798Z,27.97
2016-11-12T08:03:11.382Z,27.94
2016-11-12T08:04:11.069Z,28.04
2016-11-12T08:05:11.077Z,28.02
2016-11-12T08:06:11.447Z,27.96
2016-11-12T08:07:11.502Z,28.11
2016-11-12T08:08:11.410Z,28.12
2016-11-12T08:09:11.415Z,27.92
2016-11-12T08:10:11.425Z,27.99
2016-11-12T08:11:10.801Z,28.02
2016-11-12T08:12:11.483Z,28.09
2016-11-12T08:13:11.134Z,28.06
2016-11-12T08:14:11.501Z,28
2016-11-12T08:15:11.508Z,27.96
2016-11-12T08:16:11.155Z,28
2016-11-12T08:17:11.254Z,28.11
2016-11-12T08:18:11.264Z,27.96
2016-11-12T08:19:11.485Z,28.09
2016-11-12T08:20:10.869Z,27.97
2016-11-12T08:21:11.497Z,27.96
2016-11-12T08:22:12.090Z,27.97
2016-11-12T08:23:11.509Z,28.06
2016-11-12T08:24:11.254Z,28.11
2016-11-12T08:25:11.213Z,28.17
2016-11-12T08:26:11.219Z,28.22
2016-11-12T08:27:10.911Z,28.29
2016-11-12T08:28:11.280Z,28.3
2016-11-12T08:29:11.551Z,28.41
2016-11-12T08:30:11.247Z,28.33
2016-11-12T08:31:13.428Z,28.4
2016-11-12T08:32:10.949Z,28.52
2016-11-12T08:33:12.218Z,28.51
2016-11-12T08:34:11.277Z,28.49
2016-11-12T08:35:11.284Z,28.52
2016-11-12T08:36:11.603Z,28.46
2016-11-12T08:37:11.663Z,28.49
2016-11-12T08:38:11.308Z,28.46
2016-11-12T08:39:11.677Z,28.52
2016-11-12T08:40:11.376Z,28.67
2016-11-12T08:41:11.385Z,28.64
2016-11-12T08:42:13.264Z,28.67
2016-11-12T08:43:11.664Z,28.55
2016-11-12T08:44:12.420Z,28.67
2016-11-12T08:45:11.364Z,28.56
2016-11-12T08:46:11.424Z,28.61
2016-11-12T08:47:11.428Z,28.68
2016-11-12T08:48:11.437Z,28.61
2016-11-12T08:49:11.705Z,28.76
2016-11-12T08:50:11.753Z,28.67
2016-11-12T08:51:11.774Z,28.66
2016-11-12T08:52:11.434Z,28.52
2016-11-12T08:53:12.987Z,28.55
2016-11-12T08:54:11.751Z,28.64
2016-11-12T08:55:12.102Z,28.7
2016-11-12T08:56:11.447Z,28.7
2016-11-12T08:57:11.460Z,28.74
2016-11-12T08:58:11.830Z,28.71
2016-11-12T08:59:11.711Z,28.67
2016-11-12T09:00:11.531Z,28.61
2016-11-12T09:01:11.806Z,28.66
2016-11-12T09:02:11.521Z,28.68
2016-11-12T09:03:11.555Z,28.66
2016-11-12T09:04:12.701Z,28.67
2016-11-12T09:05:11.842Z,28.64
2016-11-12T09:06:11.616Z,28.68
2016-11-12T09:07:11.848Z,28.66
2016-11-12T09:08:11.865Z,28.68
2016-11-12T09:09:11.863Z,28.66
2016-11-12T09:10:11.563Z,28.64
2016-11-12T09:11:11.930Z,28.64
2016-11-12T09:12:11.627Z,28.7
2016-11-12T09:13:11.276Z,28.68
2016-11-12T09:14:11.891Z,28.64
2016-11-12T09:15:12.259Z,28.64
2016-11-12T09:16:11.394Z,28.59
2016-11-12T09:17:11.927Z,28.61
2016-11-12T09:18:11.626Z,28.68
2016-11-12T09:19:11.681Z,28.61
2016-11-12T09:20:11.377Z,28.56
2016-11-12T09:21:11.696Z,28.62
2016-11-12T09:22:11.655Z,28.61
2016-11-12T09:23:11.973Z,28.61
2016-11-12T09:24:11.725Z,28.62
2016-11-12T09:25:11.685Z,28.67
2016-11-12T09:26:11.787Z,28.68
2016-11-12T09:27:11.743Z,28.68
2016-11-12T09:28:11.702Z,28.78
2016-11-12T09:29:11.710Z,28.8
2016-11-12T09:30:11.404Z,28.77
2016-11-12T09:31:11.730Z,28.77
2016-11-12T09:32:11.735Z,28.77
2016-11-12T09:33:11.794Z,28.8
2016-11-12T09:34:12.069Z,28.83
2016-11-12T09:35:11.808Z,28.78
2016-11-12T09:36:12.080Z,28.71
2016-11-12T09:37:11.821Z,28.7
2016-11-12T09:38:11.880Z,28.7
2016-11-12T09:39:13.025Z,28.62
2016-11-12T09:40:12.112Z,28.66
2016-11-12T09:41:11.804Z,28.67
2016-11-12T09:42:12.124Z,28.61
2016-11-12T09:43:11.870Z,28.64
2016-11-12T09:44:11.829Z,28.52
2016-11-12T09:45:12.200Z,28.51
2016-11-12T09:46:11.839Z,28.54
2016-11-12T09:47:12.249Z,28.52
2016-11-12T09:48:13.169Z,28.51
2016-11-12T09:49:11.553Z,28.4
2016-11-12T09:50:12.778Z,28.37
2016-11-12T09:51:11.983Z,28.3
2016-11-12T09:52:12.204Z,28.29
2016-11-12T09:53:12.213Z,28.21
2016-11-12T09:54:12.013Z,28.36
2016-11-12T09:55:12.278Z,28.37
2016-11-12T09:56:11.660Z,28.19
2016-11-12T09:57:11.993Z,28.09
2016-11-12T09:58:12.252Z,28.12
2016-11-12T09:59:13.213Z,28.14
2016-11-12T10:00:11.953Z,28.12
2016-11-12T10:01:12.508Z,28.15
2016-11-12T10:02:11.966Z,28.15
2016-11-12T10:03:11.665Z,28.15
2016-11-12T10:04:12.031Z,28.18
2016-11-12T10:05:12.041Z,28.09
2016-11-12T10:06:12.311Z,28.17
2016-11-12T10:07:12.055Z,28.18
2016-11-12T10:08:12.323Z,28.07
2016-11-12T10:09:11.706Z,28.11
2016-11-12T10:10:12.897Z,28.02
2016-11-12T10:11:12.350Z,28.09
2016-11-12T10:12:12.194Z,27.99
2016-11-12T10:13:12.052Z,28.11
2016-11-12T10:14:11.801Z,28.07
2016-11-12T10:15:12.089Z,28.03
2016-11-12T10:16:12.391Z,28
2016-11-12T10:17:12.447Z,27.97
2016-11-12T10:18:12.136Z,28
2016-11-12T10:19:12.127Z,28
2016-11-12T10:20:12.153Z,27.99
2016-11-12T10:21:12.720Z,28.03
2016-11-12T10:22:12.169Z,27.99
2016-11-12T10:23:12.438Z,28
2016-11-12T10:24:12.442Z,27.97
2016-11-12T10:25:12.138Z,27.9
2016-11-12T10:26:12.246Z,27.88
2016-11-12T10:27:12.252Z,27.88
2016-11-12T10:28:12.163Z,27.88
2016-11-12T10:29:12.221Z,27.82
2016-11-12T10:30:11.910Z,27.88
2016-11-12T10:31:12.235Z,27.94
2016-11-12T10:32:12.026Z,27.88
2016-11-12T10:33:12.563Z,27.78
2016-11-12T10:34:12.205Z,27.9
2016-11-12T10:35:12.265Z,27.88
2016-11-12T10:36:13.224Z,27.94
2016-11-12T10:37:12.229Z,27.9
2016-11-12T10:38:12.648Z,27.93
2016-11-12T10:39:12.656Z,27.85
2016-11-12T10:40:12.013Z,27.9
2016-11-12T10:41:11.939Z,27.81
2016-11-12T10:42:12.576Z,27.85
2016-11-12T10:43:12.269Z,27.81
2016-11-12T10:44:12.724Z,27.79
2016-11-12T10:45:12.283Z,27.75
2016-11-12T10:46:12.345Z,27.65
2016-11-12T10:47:13.099Z,27.75
2016-11-12T10:48:12.670Z,27.79
2016-11-12T10:49:12.310Z,27.74
2016-11-12T10:50:12.321Z,27.74
2016-11-12T10:51:12.726Z,27.81
2016-11-12T10:52:12.072Z,27.67
2016-11-12T10:53:12.702Z,27.75
2016-11-12T10:54:12.361Z,27.67
2016-11-12T10:55:12.404Z,27.74
2016-11-12T10:56:13.263Z,27.72
2016-11-12T10:57:12.372Z,27.7
2016-11-12T10:58:12.832Z,27.69
2016-11-12T10:59:12.705Z,27.67
2016-11-12T11:00:12.706Z,27.67
2016-11-12T11:01:12.449Z,27.67
2016-11-12T11:02:12.505Z,27.67
2016-11-12T11:03:12.147Z,27.69
2016-11-12T11:04:12.112Z,27.63
2016-11-12T11:05:13.716Z,27.66
2016-11-12T11:06:12.435Z,27.79
2016-11-12T11:07:13.497Z,27.78
2016-11-12T11:08:12.448Z,27.7
2016-11-12T11:09:12.611Z,27.75
2016-11-12T11:10:12.465Z,27.74
2016-11-12T11:11:12.832Z,27.79
2016-11-12T11:12:12.214Z,27.79
2016-11-12T11:13:12.851Z,27.7
2016-11-12T11:14:12.904Z,27.63
2016-11-12T11:15:12.496Z,27.51
2016-11-12T11:16:13.718Z,27.59
2016-11-12T11:17:12.829Z,27.51
2016-11-12T11:18:12.874Z,27.51
2016-11-12T11:19:12.263Z,27.59
2016-11-12T11:20:12.222Z,27.65
2016-11-12T11:21:12.230Z,27.5
2016-11-12T11:22:12.600Z,27.54
2016-11-12T11:23:12.243Z,27.55
2016-11-12T11:24:12.261Z,27.54
2016-11-12T11:25:12.257Z,27.55
2016-11-12T11:26:12.578Z,27.66
2016-11-12T11:27:13.387Z,27.69
2016-11-12T11:28:12.728Z,27.62
2016-11-12T11:29:12.637Z,27.69
2016-11-12T11:30:12.655Z,27.69
2016-11-12T11:31:13.010Z,27.74
2016-11-12T11:32:12.724Z,27.72
2016-11-12T11:33:12.314Z,27.72
2016-11-12T11:34:12.638Z,27.69
2016-11-12T11:35:12.777Z,27.59
2016-11-12T11:36:12.699Z,27.65
2016-11-12T11:37:12.658Z,27.51
2016-11-12T11:38:12.901Z,27.63
2016-11-12T11:39:12.671Z,27.55
2016-11-12T11:40:13.042Z,27.49
2016-11-12T11:41:12.713Z,27.57
2016-11-12T11:42:14.033Z,27.54
2016-11-12T11:43:12.701Z,27.59
2016-11-12T11:44:27.583Z,27.5
2016-11-12T11:45:13.027Z,27.57
2016-11-12T11:46:12.718Z,27.51
2016-11-12T11:47:13.032Z,27.46
2016-11-12T11:48:13.055Z,27.57
2016-11-12T11:49:13.406Z,27.63
2016-11-12T11:50:12.849Z,27.66
2016-11-12T11:51:12.807Z,27.67
2016-11-12T11:52:12.480Z,27.7
2016-11-12T11:53:12.783Z,27.6
2016-11-12T11:54:12.465Z,27.6
2016-11-12T11:55:12.832Z,27.49
2016-11-12T11:56:12.839Z,27.59
2016-11-12T11:57:12.488Z,27.5
2016-11-12T11:58:13.119Z,27.41
2016-11-12T11:59:12.862Z,27.54
2016-11-12T12:00:13.331Z,27.55
2016-11-12T12:01:12.570Z,27.43
2016-11-12T12:02:12.839Z,27.41
2016-11-12T12:03:12.841Z,27.4
2016-11-12T12:04:14.333Z,27.55
2016-11-12T12:05:13.168Z,27.65
2016-11-12T12:06:13.237Z,27.69
2016-11-12T12:07:12.660Z,27.66
2016-11-12T12:08:12.930Z,27.7
2016-11-12T12:09:13.251Z,27.75
2016-11-12T12:10:12.894Z,27.77
2016-11-12T12:11:13.265Z,27.75
2016-11-12T12:12:12.955Z,27.85
2016-11-12T12:13:12.968Z,27.85
2016-11-12T12:14:12.610Z,27.74
2016-11-12T12:15:13.983Z,27.9
2016-11-12T12:16:13.352Z,27.87
2016-11-12T12:17:13.305Z,27.87
2016-11-12T12:18:13.313Z,27.85
2016-11-12T12:19:12.647Z,27.84
2016-11-12T12:20:13.277Z,27.87
2016-11-12T12:21:13.021Z,27.94
2016-11-12T12:22:13.389Z,27.87
2016-11-12T12:23:13.034Z,27.84
2016-11-12T12:24:13.308Z,27.9
2016-11-12T12:25:13.054Z,27.92
2016-11-12T12:26:14.062Z,27.9
2016-11-12T12:27:13.325Z,27.99
2016-11-12T12:28:13.025Z,27.84
2016-11-12T12:29:13.392Z,27.93
2016-11-12T12:30:13.400Z,27.85
2016-11-12T12:31:13.407Z,27.93
2016-11-12T12:32:13.099Z,27.88
2016-11-12T12:33:13.407Z,27.7
2016-11-12T12:34:13.071Z,27.7
2016-11-12T12:35:13.075Z,27.81
2016-11-12T12:36:13.393Z,27.81
2016-11-12T12:37:14.185Z,27.77
2016-11-12T12:38:13.411Z,27.82
2016-11-12T12:39:13.412Z,27.79
2016-11-12T12:40:13.159Z,27.7
2016-11-12T12:41:13.170Z,27.69
2016-11-12T12:42:13.481Z,27.63
2016-11-12T12:43:13.127Z,27.75
2016-11-12T12:44:13.448Z,27.65
2016-11-12T12:45:13.542Z,27.72
2016-11-12T12:46:13.155Z,27.87
2016-11-12T12:47:13.165Z,27.69
2016-11-12T12:48:13.968Z,27.72
2016-11-12T12:49:13.490Z,27.67
2016-11-12T12:50:12.868Z,27.72
2016-11-12T12:51:13.549Z,27.78
2016-11-12T12:52:13.508Z,27.78
2016-11-12T12:53:12.892Z,27.79
2016-11-12T12:54:13.530Z,27.69
2016-11-12T12:55:13.217Z,27.77
2016-11-12T12:56:13.589Z,27.77
2016-11-12T12:57:13.593Z,27.75
2016-11-12T12:58:13.287Z,27.75
2016-11-12T12:59:14.147Z,27.77
2016-11-12T13:00:12.989Z,27.75